createdAt,value
2018-05-29T00:00:53.071Z,73.35
2018-05-29T00:01:53.637Z,73.35
2018-05-29T00:02:53.742Z,72.96
2018-05-29T00:03:53.776Z,72.96
2018-05-29T00:04:54.108Z,73.15
2018-05-29T00:05:54.192Z,73.06
2018-05-29T00:06:54.322Z,73.25
2018-05-29T00:07:54.457Z,73.06
2018-05-29T00:08:54.505Z,73.54
2018-05-29T00:09:54.749Z,73.54
2018-05-29T00:10:54.894Z,73.93
2018-05-29T00:11:54.999Z,74.12
2018-05-29T00:12:55.086Z,74.02
2018-05-29T00:13:55.220Z,73.93
2018-05-29T00:14:55.120Z,74.02
2018-05-29T00:15:55.442Z,73.54
2018-05-29T00:16:55.482Z,73.93
2018-05-29T00:17:55.516Z,73.93
2018-05-29T00:18:55.537Z,73.93
2018-05-29T00:19:55.309Z,74.12
2018-05-29T00:20:55.611Z,73.93
2018-05-29T00:21:55.772Z,74.31
2018-05-29T00:22:55.906Z,74.21
2018-05-29T00:23:56.021Z,73.93
2018-05-29T00:24:56.046Z,73.93
2018-05-29T00:25:56.454Z,74.47
2018-05-29T00:26:56.496Z,74.37
2018-05-29T00:27:56.530Z,73.99
2018-05-29T00:28:56.995Z,74.27
2018-05-29T00:29:57.038Z,74.08
2018-05-29T00:30:57.069Z,74.37
2018-05-29T00:31:57.665Z,74.27
2018-05-29T00:32:57.805Z,74.37
2018-05-29T00:33:57.962Z,74.47
2018-05-29T00:34:57.704Z,74.37
2018-05-29T00:35:58.437Z,73.99
2018-05-29T00:36:58.244Z,73.99
2018-05-29T00:37:58.696Z,74.08
2018-05-29T00:38:58.393Z,73.99
2018-05-29T00:39:58.574Z,73.99
2018-05-29T00:40:58.836Z,73.89
2018-05-29T00:41:58.008Z,73.99
2018-05-29T00:42:58.542Z,74.27
2018-05-29T00:43:58.820Z,74.08
2018-05-29T00:44:59.311Z,74.18
2018-05-29T00:45:59.363Z,73.99
2018-05-29T00:46:59.362Z,74.37
2018-05-29T00:47:59.427Z,74.37
2018-05-29T00:48:58.748Z,74.37
2018-05-29T00:49:59.475Z,74.37
2018-05-29T00:50:59.487Z,74.47
2018-05-29T00:51:59.481Z,74.27
2018-05-29T00:52:58.770Z,74.18
2018-05-29T00:53:58.925Z,74.47
2018-05-29T00:54:59.656Z,74.27
2018-05-29T00:55:59.653Z,74.18
2018-05-29T00:56:59.801Z,74.37
2018-05-29T00:57:59.622Z,74.47
2018-05-29T00:58:59.574Z,74.37
2018-05-29T00:59:59.192Z,74.37
2018-05-29T01:00:59.733Z,73.99
2018-05-29T01:01:59.904Z,74.57
2018-05-29T01:02:59.236Z,74.57
2018-05-29T01:03:59.251Z,74.37
2018-05-29T01:05:00.232Z,74.62
2018-05-29T01:05:59.341Z,74.85
2018-05-29T01:06:59.376Z,74.33
2018-05-29T01:08:00.253Z,74.24
2018-05-29T01:08:59.918Z,74.43
2018-05-29T01:10:00.592Z,74.43
2018-05-29T01:10:59.700Z,74.24
2018-05-29T01:12:00.132Z,74.52
2018-05-29T01:13:00.344Z,74.43
2018-05-29T01:14:00.438Z,74.43
2018-05-29T01:15:00.438Z,74.82
2018-05-29T01:16:00.977Z,74.72
2018-05-29T01:17:00.224Z,74.14
2018-05-29T01:18:01.105Z,74.43
2018-05-29T01:19:01.310Z,74.33
2018-05-29T01:20:00.861Z,74.52
2018-05-29T01:21:01.103Z,74.62
2018-05-29T01:22:01.685Z,74.72
2018-05-29T01:23:01.635Z,75.01
2018-05-29T01:24:01.330Z,75.01
2018-05-29T01:25:01.387Z,75.1
2018-05-29T01:26:01.510Z,74.91
2018-05-29T01:27:02.182Z,75.3
2018-05-29T01:28:01.394Z,74.91
2018-05-29T01:29:01.123Z,74.91
2018-05-29T01:30:01.420Z,75.07
2018-05-29T01:31:01.191Z,74.78
2018-05-29T01:32:01.507Z,75.36
2018-05-29T01:33:01.554Z,75.65
2018-05-29T01:34:01.724Z,75.16
2018-05-29T01:35:01.924Z,75.65
2018-05-29T01:36:01.685Z,75.74
2018-05-29T01:37:02.116Z,75.26
2018-05-29T01:38:02.489Z,75.74
2018-05-29T01:39:02.476Z,75.74
2018-05-29T01:40:02.698Z,75.16
2018-05-29T01:41:02.743Z,75.07
2018-05-29T01:42:02.786Z,75.74
2018-05-29T01:43:02.824Z,75.55
2018-05-29T01:44:02.624Z,76.03
2018-05-29T01:45:03.218Z,76.03
2018-05-29T01:46:03.451Z,75.84
2018-05-29T01:47:03.206Z,76.03
2018-05-29T01:48:03.696Z,76.03
2018-05-29T01:49:04.190Z,76.51
2018-05-29T01:50:04.440Z,76.9
2018-05-29T01:51:04.406Z,75.55
2018-05-29T01:52:04.150Z,75.93
2018-05-29T01:53:04.464Z,75.84
2018-05-29T01:54:04.238Z,76.13
2018-05-29T01:55:04.509Z,76.23
2018-05-29T01:56:04.739Z,76.09
2018-05-29T01:57:04.641Z,76.71
2018-05-29T01:58:05.228Z,76.67
2018-05-29T01:59:05.571Z,76.23
2018-05-29T02:00:11.762Z,76.03
2018-05-29T02:01:05.529Z,76.32
2018-05-29T02:02:05.570Z,76.42
2018-05-29T02:03:05.597Z,75.99
2018-05-29T02:04:05.783Z,76.96
2018-05-29T02:05:05.530Z,76.38
2018-05-29T02:06:05.876Z,76.57
2018-05-29T02:07:05.906Z,76.96
2018-05-29T02:08:05.906Z,76.86
2018-05-29T02:09:06.175Z,76.96
2018-05-29T02:10:06.139Z,77.25
2018-05-29T02:11:06.244Z,77.06
2018-05-29T02:12:06.101Z,76.96
2018-05-29T02:13:06.473Z,76.96
2018-05-29T02:14:06.517Z,77.34
2018-05-29T02:15:07.037Z,77.83
2018-05-29T02:16:06.771Z,77.44
2018-05-29T02:17:07.085Z,78.02
2018-05-29T02:18:07.220Z,78.11
2018-05-29T02:19:07.519Z,78.27
2018-05-29T02:20:07.858Z,78.36
2018-05-29T02:21:07.593Z,78.36
2018-05-29T02:22:07.628Z,78.46
2018-05-29T02:23:08.025Z,78.46
2018-05-29T02:24:08.169Z,78.85
2018-05-29T02:25:08.506Z,78.46
2018-05-29T02:26:08.634Z,78.46
2018-05-29T02:27:08.712Z,78.17
2018-05-29T02:28:09.258Z,78.56
2018-05-29T02:29:09.169Z,77.98
2018-05-29T02:30:09.113Z,78.17
2018-05-29T02:31:08.821Z,77.98
2018-05-29T02:32:09.129Z,78.46
2018-05-29T02:33:09.185Z,78.36
2018-05-29T02:34:09.264Z,78.27
2018-05-29T02:35:09.255Z,78.17
2018-05-29T02:36:09.396Z,79.03
2018-05-29T02:37:09.181Z,78.56
2018-05-29T02:38:09.347Z,78.46
2018-05-29T02:39:09.897Z,78.56
2018-05-29T02:40:09.958Z,78.36
2018-05-29T02:41:10.029Z,78.56
2018-05-29T02:42:09.743Z,78.56
2018-05-29T02:43:09.968Z,78.85
2018-05-29T02:44:10.423Z,78.81
2018-05-29T02:45:10.825Z,79
2018-05-29T02:46:10.574Z,78.9
2018-05-29T02:47:10.880Z,79.28
2018-05-29T02:48:10.903Z,79.38
2018-05-29T02:49:10.966Z,79.48
2018-05-29T02:50:11.425Z,79.38
2018-05-29T02:51:11.570Z,79.96
2018-05-29T02:52:11.576Z,80.15
2018-05-29T02:53:11.442Z,79.86
2018-05-29T02:54:11.918Z,79.86
2018-05-29T02:55:12.055Z,79.77
2018-05-29T02:56:11.975Z,80.06
2018-05-29T02:57:11.728Z,79.86
2018-05-29T02:58:12.056Z,79.96
2018-05-29T02:59:12.093Z,80.06
2018-05-29T03:00:25.321Z,80.35
2018-05-29T03:01:25.841Z,80.73
2018-05-29T03:02:25.809Z,80.35
2018-05-29T03:03:25.562Z,80.15
2018-05-29T03:04:26.237Z,80.06
2018-05-29T03:05:26.039Z,80.44
2018-05-29T03:06:26.063Z,80.25
2018-05-29T03:07:26.100Z,80.44
2018-05-29T03:08:25.958Z,80.54
2018-05-29T03:09:26.595Z,80.44
2018-05-29T03:10:26.604Z,80.83
2018-05-29T03:11:26.339Z,80.4
2018-05-29T03:12:26.374Z,80.25
2018-05-29T03:13:26.720Z,80.73
2018-05-29T03:14:26.826Z,80.92
2018-05-29T03:15:26.853Z,80.92
2018-05-29T03:16:26.805Z,80.92
2018-05-29T03:17:27.213Z,80.25
2018-05-29T03:18:27.262Z,80.25
2018-05-29T03:19:27.993Z,80.06
2018-05-29T03:20:27.376Z,80.15
2018-05-29T03:21:27.379Z,80.44
2018-05-29T03:22:27.165Z,80.35
2018-05-29T03:23:27.475Z,80.54
2018-05-29T03:24:27.473Z,80.92
2018-05-29T03:25:27.209Z,80.73
2018-05-29T03:26:27.588Z,81.21
2018-05-29T03:27:27.580Z,81.02
2018-05-29T03:28:27.987Z,80.83
2018-05-29T03:29:27.737Z,81.07
2018-05-29T03:30:28.224Z,81.17
2018-05-29T03:31:28.116Z,81.21
2018-05-29T03:32:28.293Z,81.02
2018-05-29T03:33:28.600Z,81.12
2018-05-29T03:34:29.182Z,81.3
2018-05-29T03:35:29.469Z,81.4
2018-05-29T03:36:28.890Z,80.79
2018-05-29T03:37:29.323Z,80.73
2018-05-29T03:38:29.609Z,81.12
2018-05-29T03:39:29.510Z,81.27
2018-05-29T03:40:29.925Z,81.17
2018-05-29T03:41:30.085Z,81.12
2018-05-29T03:42:30.350Z,81.02
2018-05-29T03:43:30.494Z,81.02
2018-05-29T03:44:30.929Z,80.98
2018-05-29T03:45:30.930Z,81.5
2018-05-29T03:46:30.949Z,81.3
2018-05-29T03:47:31.378Z,81.5
2018-05-29T03:48:31.418Z,81.02
2018-05-29T03:49:31.432Z,81.5
2018-05-29T03:50:31.610Z,81.21
2018-05-29T03:51:31.981Z,81.07
2018-05-29T03:52:31.718Z,81.3
2018-05-29T03:53:32.009Z,81.4
2018-05-29T03:54:32.188Z,81.37
2018-05-29T03:55:32.331Z,81.4
2018-05-29T03:56:32.800Z,81.5
2018-05-29T03:57:32.836Z,81.3
2018-05-29T03:58:33.216Z,81.65
2018-05-29T03:59:33.633Z,81.21
2018-05-29T04:00:33.848Z,82.08
2018-05-29T04:01:34.623Z,81.7
2018-05-29T04:02:34.194Z,81.21
2018-05-29T04:03:34.592Z,81.3
2018-05-29T04:04:34.723Z,80.92
2018-05-29T04:05:35.155Z,81.02
2018-05-29T04:06:35.053Z,80.92
2018-05-29T04:07:35.001Z,81.3
2018-05-29T04:08:35.421Z,81.02
2018-05-29T04:09:35.461Z,81.21
2018-05-29T04:10:35.513Z,80.63
2018-05-29T04:11:35.707Z,81.12
2018-05-29T04:12:35.386Z,81.12
2018-05-29T04:13:35.842Z,81.3
2018-05-29T04:14:36.217Z,80.83
2018-05-29T04:15:36.386Z,80.73
2018-05-29T04:16:36.561Z,79.71
2018-05-29T04:17:36.892Z,79.27
2018-05-29T04:18:37.201Z,78.21
2018-05-29T04:19:37.500Z,78.02
2018-05-29T04:20:38.178Z,77.19
2018-05-29T04:21:38.120Z,76.55
2018-05-29T04:22:37.842Z,75.72
2018-05-29T04:23:38.276Z,75.53
2018-05-29T04:24:37.797Z,75.92
2018-05-29T04:25:37.454Z,75.88
2018-05-29T04:26:38.218Z,76.36
2018-05-29T04:27:37.621Z,77.38
2018-05-29T04:28:37.662Z,77.09
2018-05-29T04:29:37.812Z,77.76
2018-05-29T04:30:37.836Z,78.06
2018-05-29T04:31:37.698Z,78.06
2018-05-29T04:32:38.291Z,78.59
2018-05-29T04:33:38.831Z,78.69
2018-05-29T04:34:38.743Z,78.21
2018-05-29T04:35:38.966Z,78.25
2018-05-29T04:36:38.962Z,78.34
2018-05-29T04:37:40.144Z,78.11
2018-05-29T04:38:40.107Z,78.4
2018-05-29T04:39:39.772Z,78.54
2018-05-29T04:40:40.129Z,78.34
2018-05-29T04:41:40.132Z,78.44
2018-05-29T04:42:40.297Z,78.59
2018-05-29T04:43:40.101Z,78.59
2018-05-29T04:44:40.053Z,78.5
2018-05-29T04:45:40.329Z,78.34
2018-05-29T04:46:40.348Z,78.92
2018-05-29T04:47:40.797Z,78.79
2018-05-29T04:48:41.002Z,79.69
2018-05-29T04:49:41.329Z,80.18
2018-05-29T04:50:41.248Z,79.02
2018-05-29T04:51:41.267Z,79.02
2018-05-29T04:52:41.980Z,79.02
2018-05-29T04:53:42.030Z,79.31
2018-05-29T04:54:42.453Z,78.44
2018-05-29T04:55:42.199Z,78.15
2018-05-29T04:56:42.612Z,78.15
2018-05-29T04:57:42.987Z,78.25
2018-05-29T04:58:42.744Z,77.96
2018-05-29T04:59:43.174Z,77.76
2018-05-29T05:00:43.582Z,78.15
2018-05-29T05:01:43.618Z,77.48
2018-05-29T05:02:43.869Z,77.48
2018-05-29T05:03:43.827Z,77.86
2018-05-29T05:04:44.325Z,77.33
2018-05-29T05:05:44.378Z,77.33
2018-05-29T05:06:44.384Z,76.75
2018-05-29T05:07:44.630Z,77.13
2018-05-29T05:08:44.631Z,77.13
2018-05-29T05:09:44.922Z,77.13
2018-05-29T05:10:45.171Z,76.55
2018-05-29T05:11:45.190Z,76.3
2018-05-29T05:12:45.250Z,76.98
2018-05-29T05:13:45.279Z,76.2
2018-05-29T05:14:45.019Z,76.3
2018-05-29T05:15:46.018Z,75.18
2018-05-29T05:16:45.778Z,74.6
2018-05-29T05:17:45.644Z,74.21
2018-05-29T05:18:45.392Z,74.6
2018-05-29T05:19:45.744Z,74.6
2018-05-29T05:20:45.447Z,75.18
2018-05-29T05:21:45.488Z,74.6
2018-05-29T05:22:45.998Z,74.21
2018-05-29T05:23:46.183Z,74.35
2018-05-29T05:24:46.076Z,73.09
2018-05-29T05:25:46.112Z,73
2018-05-29T05:26:46.194Z,73.22
2018-05-29T05:27:46.463Z,72.74
2018-05-29T05:28:46.418Z,71.68
2018-05-29T05:29:46.096Z,72.06
2018-05-29T05:30:46.743Z,71.04
2018-05-29T05:31:46.688Z,70.5
2018-05-29T05:32:46.816Z,70.01
2018-05-29T05:33:46.761Z,69.24
2018-05-29T05:34:46.510Z,68.79
2018-05-29T05:35:46.879Z,68.11
2018-05-29T05:36:47.074Z,67.56
2018-05-29T05:37:47.080Z,67.02
2018-05-29T05:38:47.700Z,65.75
2018-05-29T05:39:47.711Z,66.17
2018-05-29T05:40:47.265Z,66.47
2018-05-29T05:41:47.138Z,67.02
2018-05-29T05:42:47.225Z,67.02
2018-05-29T05:43:47.305Z,66.53
2018-05-29T05:44:47.304Z,66.72
2018-05-29T05:45:47.341Z,67.6
2018-05-29T05:46:47.007Z,67.56
2018-05-29T05:47:47.768Z,67.95
2018-05-29T05:48:48.285Z,68.43
2018-05-29T05:49:48.246Z,68.05
2018-05-29T05:50:48.754Z,68.4
2018-05-29T05:51:48.552Z,68.49
2018-05-29T05:52:49.175Z,68.3
2018-05-29T05:53:49.023Z,66.88
2018-05-29T05:54:48.789Z,65.85
2018-05-29T05:55:49.289Z,64.72
2018-05-29T05:56:49.312Z,63.72
2018-05-29T05:57:49.336Z,64.3
2018-05-29T05:58:49.308Z,63.53
2018-05-29T05:59:49.671Z,63.53
2018-05-29T06:00:49.382Z,63.72
2018-05-29T06:01:49.757Z,64.65
2018-05-29T06:02:50.186Z,65.05
2018-05-29T06:03:50.245Z,64.75
2018-05-29T06:04:50.262Z,65.69
2018-05-29T06:05:50.008Z,65.05
2018-05-29T06:06:50.350Z,65.3
2018-05-29T06:07:50.718Z,65.89
2018-05-29T06:08:50.579Z,65.2
2018-05-29T06:09:50.657Z,65.3
2018-05-29T06:10:50.724Z,64.82
2018-05-29T06:11:50.999Z,64.27
2018-05-29T06:12:51.002Z,63.33
2018-05-29T06:13:51.150Z,62.19
2018-05-29T06:14:51.175Z,61.16
2018-05-29T06:15:51.450Z,61.19
2018-05-29T06:16:51.512Z,60.54
2018-05-29T06:17:51.513Z,58.14
2018-05-29T06:18:51.985Z,55.43
2018-05-29T06:19:52.541Z,53.24
2018-05-29T06:20:52.571Z,51.66
2018-05-29T06:21:52.605Z,49.85
2018-05-29T06:22:53.029Z,48.82
2018-05-29T06:23:52.826Z,48.19
2018-05-29T06:24:53.095Z,47.79
2018-05-29T06:25:53.279Z,47.79
2018-05-29T06:26:53.199Z,48.75
2018-05-29T06:27:52.921Z,47.5
2018-05-29T06:28:53.420Z,47.3
2018-05-29T06:29:53.541Z,46.91
2018-05-29T06:30:53.229Z,46.56
2018-05-29T06:31:53.526Z,45.61
2018-05-29T06:32:53.292Z,45.34
2018-05-29T06:33:53.624Z,45.65
2018-05-29T06:34:53.662Z,44.89
2018-05-29T06:35:53.863Z,45.01
2018-05-29T06:36:53.776Z,44.91
2018-05-29T06:37:53.747Z,45.55
2018-05-29T06:38:53.903Z,45.36
2018-05-29T06:39:54.408Z,45.36
2018-05-29T06:40:54.485Z,45.34
2018-05-29T06:41:54.156Z,45.21
2018-05-29T06:42:54.466Z,44.82
2018-05-29T06:43:54.857Z,44.06
2018-05-29T06:44:55.382Z,44.59
2018-05-29T06:45:55.686Z,44.01
2018-05-29T06:46:55.399Z,43.63
2018-05-29T06:47:55.900Z,43.06
2018-05-29T06:48:56.502Z,43.43
2018-05-29T06:49:55.829Z,43.8
2018-05-29T06:50:56.179Z,44.55
2018-05-29T06:51:56.463Z,44.65
2018-05-29T06:52:56.466Z,45.49
2018-05-29T06:53:56.656Z,45.19
2018-05-29T06:54:56.762Z,44.55
2018-05-29T06:55:56.699Z,43.76
2018-05-29T06:56:56.922Z,43.51
2018-05-29T06:57:56.668Z,44.08
2018-05-29T06:58:56.891Z,43.79
2018-05-29T06:59:56.877Z,43.59
2018-05-29T07:00:57.656Z,43.86
2018-05-29T07:01:57.615Z,43.47
2018-05-29T07:02:57.823Z,43.37
2018-05-29T07:03:57.968Z,43.19
2018-05-29T07:04:57.956Z,42.82
2018-05-29T07:05:57.735Z,41.98
2018-05-29T07:06:57.811Z,42
2018-05-29T07:07:58.158Z,41.24
2018-05-29T07:08:57.912Z,39.62
2018-05-29T07:09:58.203Z,39.84
2018-05-29T07:10:58.590Z,40.88
2018-05-29T07:11:58.871Z,40.84
2018-05-29T07:12:58.947Z,41.71
2018-05-29T07:13:58.930Z,41.78
2018-05-29T07:14:58.990Z,41.51
2018-05-29T07:15:58.908Z,40.25
2018-05-29T07:16:59.494Z,41.51
2018-05-29T07:17:59.556Z,41.22
2018-05-29T07:18:59.559Z,40.63
2018-05-29T07:19:59.653Z,40.64
2018-05-29T07:21:00.160Z,39.7
2018-05-29T07:22:00.308Z,39.89
2018-05-29T07:23:00.088Z,38.67
2018-05-29T07:24:00.471Z,37.92
2018-05-29T07:25:00.507Z,38.2
2018-05-29T07:26:00.574Z,38.2
2018-05-29T07:27:00.443Z,37.6
2018-05-29T07:28:00.805Z,37.59
2018-05-29T07:29:00.944Z,36.73
2018-05-29T07:30:01.362Z,36.37
2018-05-29T07:31:01.539Z,36.18
2018-05-29T07:32:02.140Z,36.39
2018-05-29T07:33:02.508Z,35.7
2018-05-29T07:34:02.741Z,34.84
2018-05-29T07:35:02.629Z,35.22
2018-05-29T07:36:02.945Z,35.32
2018-05-29T07:37:03.001Z,35.11
2018-05-29T07:38:03.472Z,35.21
2018-05-29T07:39:03.785Z,35.57
2018-05-29T07:40:03.525Z,35.55
2018-05-29T07:41:03.849Z,34.78
2018-05-29T07:42:03.747Z,34.71
2018-05-29T07:43:04.076Z,34.73
2018-05-29T07:44:05.586Z,34.66
2018-05-29T07:45:05.760Z,33.98
2018-05-29T07:46:05.719Z,34.06
2018-05-29T07:47:04.887Z,34.8
2018-05-29T07:48:04.993Z,33.92
2018-05-29T07:49:04.690Z,33.12
2018-05-29T07:50:05.734Z,32.06
2018-05-29T07:51:05.501Z,31.48
2018-05-29T07:52:05.608Z,32.14
2018-05-29T07:53:05.450Z,32.1
2018-05-29T07:54:05.553Z,32.4
2018-05-29T07:55:05.694Z,32.2
2018-05-29T07:56:06.631Z,33.47
2018-05-29T07:57:06.320Z,33.72
2018-05-29T07:58:06.280Z,33.41
2018-05-29T07:59:06.298Z,33.42
2018-05-29T08:00:13.122Z,32.96
2018-05-29T08:01:06.661Z,32.43
2018-05-29T08:02:06.808Z,32.14
2018-05-29T08:03:06.869Z,31.45
2018-05-29T08:04:07.194Z,31.37
2018-05-29T08:05:06.997Z,31.72
2018-05-29T08:06:06.995Z,32.17
2018-05-29T08:07:07.394Z,32.24
2018-05-29T08:08:07.093Z,33.59
2018-05-29T08:09:07.556Z,33.37
2018-05-29T08:10:07.860Z,33.85
2018-05-29T08:11:07.893Z,33.2
2018-05-29T08:12:07.682Z,32.81
2018-05-29T08:13:07.778Z,33.11
2018-05-29T08:14:07.961Z,32.43
2018-05-29T08:15:08.119Z,32.83
2018-05-29T08:16:07.855Z,32.92
2018-05-29T08:17:08.227Z,33.39
2018-05-29T08:18:07.859Z,33.03
2018-05-29T08:19:08.290Z,32.92
2018-05-29T08:20:08.694Z,32.92
2018-05-29T08:21:08.295Z,32.32
2018-05-29T08:22:08.410Z,32.25
2018-05-29T08:23:08.299Z,31.82
2018-05-29T08:24:08.663Z,30.86
2018-05-29T08:25:08.656Z,30.96
2018-05-29T08:26:09.134Z,31.42
2018-05-29T08:27:09.344Z,31.04
2018-05-29T08:28:09.325Z,31.41
2018-05-29T08:29:09.020Z,31.11
2018-05-29T08:30:09.208Z,31.13
2018-05-29T08:31:09.544Z,31.04
2018-05-29T08:32:09.875Z,30.36
2018-05-29T08:33:09.245Z,30.65
2018-05-29T08:34:10.159Z,31.13
2018-05-29T08:35:09.697Z,30.93
2018-05-29T08:36:10.183Z,31.13
2018-05-29T08:37:10.043Z,30.73
2018-05-29T08:38:10.923Z,30.83
2018-05-29T08:39:11.562Z,30.91
2018-05-29T08:40:10.960Z,30.52
2018-05-29T08:41:11.067Z,31.2
2018-05-29T08:42:11.280Z,30.98
2018-05-29T08:43:11.793Z,30.9
2018-05-29T08:44:11.271Z,30.04
2018-05-29T08:45:11.644Z,29.74
2018-05-29T08:46:11.432Z,30.07
2018-05-29T08:47:11.443Z,29.58
2018-05-29T08:48:11.933Z,29.31
2018-05-29T08:49:12.233Z,29.43
2018-05-29T08:50:12.386Z,29.33
2018-05-29T08:51:12.414Z,29.3
2018-05-29T08:52:12.960Z,28.8
2018-05-29T08:53:12.494Z,29.98
2018-05-29T08:54:12.708Z,29.47
2018-05-29T08:55:12.604Z,30.44
2018-05-29T08:56:13.241Z,30.25
2018-05-29T08:57:12.929Z,30.05
2018-05-29T08:58:12.652Z,30.12
2018-05-29T08:59:12.505Z,30.63
2018-05-29T09:00:12.841Z,30.5
2018-05-29T09:01:12.851Z,30.7
2018-05-29T09:02:12.853Z,30.49
2018-05-29T09:03:13.400Z,30.22
2018-05-29T09:04:13.311Z,30.02
2018-05-29T09:05:13.047Z,30.02
2018-05-29T09:06:13.051Z,29.96
2018-05-29T09:07:13.103Z,29.3
2018-05-29T09:08:13.183Z,28.43
2018-05-29T09:09:13.498Z,28.13
2018-05-29T09:10:13.723Z,27.95
2018-05-29T09:11:13.283Z,28.16
2018-05-29T09:12:13.616Z,28.08
2018-05-29T09:13:13.651Z,27.8
2018-05-29T09:14:13.701Z,27.83
2018-05-29T09:15:13.463Z,27.43
2018-05-29T09:16:14.018Z,27.34
2018-05-29T09:17:13.931Z,27.84
2018-05-29T09:18:14.602Z,27.44
2018-05-29T09:19:14.747Z,27.42
2018-05-29T09:20:14.883Z,27.93
2018-05-29T09:21:15.035Z,27.92
2018-05-29T09:22:15.096Z,27.8
2018-05-29T09:23:15.187Z,27.97
2018-05-29T09:24:15.547Z,28.47
2018-05-29T09:25:15.707Z,28.46
2018-05-29T09:26:16.101Z,27.95
2018-05-29T09:27:16.138Z,27.75
2018-05-29T09:28:16.619Z,28.13
2018-05-29T09:29:16.653Z,28.99
2018-05-29T09:30:16.560Z,29.65
2018-05-29T09:31:17.321Z,29.96
2018-05-29T09:32:17.493Z,29.46
2018-05-29T09:33:17.528Z,29.37
2018-05-29T09:34:17.365Z,28.59
2018-05-29T09:35:17.476Z,28.62
2018-05-29T09:36:17.729Z,28.81
2018-05-29T09:37:18.063Z,28.89
2018-05-29T09:38:17.804Z,28.9
2018-05-29T09:39:17.953Z,29.38
2018-05-29T09:40:18.448Z,29.94
2018-05-29T09:41:18.590Z,30.04
2018-05-29T09:42:18.361Z,29.75
2018-05-29T09:43:18.140Z,28.88
2018-05-29T09:44:18.798Z,29.27
2018-05-29T09:45:19.092Z,28.88
2018-05-29T09:46:19.134Z,28.6
2018-05-29T09:47:19.366Z,28.23
2018-05-29T09:48:19.739Z,27.95
2018-05-29T09:49:19.974Z,27.39
2018-05-29T09:50:19.669Z,27.28
2018-05-29T09:51:19.692Z,27.76
2018-05-29T09:52:20.112Z,27.76
2018-05-29T09:53:20.360Z,27.83
2018-05-29T09:54:20.466Z,27.73
2018-05-29T09:55:19.954Z,27.94
2018-05-29T09:56:20.322Z,28.03
2018-05-29T09:57:20.465Z,28.3
2018-05-29T09:58:20.769Z,28.39
2018-05-29T09:59:21.098Z,28.79
2018-05-29T10:00:21.215Z,28.58
2018-05-29T10:01:20.932Z,28.58
2018-05-29T10:02:21.425Z,28.88
2018-05-29T10:03:21.420Z,28.67
2018-05-29T10:04:21.174Z,29.27
2018-05-29T10:05:21.519Z,29.24
2018-05-29T10:06:21.545Z,28.75
2018-05-29T10:07:21.798Z,29.27
2018-05-29T10:08:22.204Z,28.89
2018-05-29T10:09:22.427Z,28.9
2018-05-29T10:10:22.419Z,29.28
2018-05-29T10:11:22.647Z,29.19
2018-05-29T10:12:22.630Z,29.38
2018-05-29T10:13:23.086Z,28.88
2018-05-29T10:14:22.786Z,29.28
2018-05-29T10:15:22.956Z,28.99
2018-05-29T10:16:23.627Z,29.17
2018-05-29T10:17:23.394Z,28.7
2018-05-29T10:18:24.049Z,28.73
2018-05-29T10:19:24.008Z,28.93
2018-05-29T10:20:23.711Z,28.62
2018-05-29T10:21:24.033Z,29.21
2018-05-29T10:22:24.452Z,29.41
2018-05-29T10:23:24.665Z,29.19
2018-05-29T10:24:25.083Z,29
2018-05-29T10:25:25.096Z,29.19
2018-05-29T10:26:25.148Z,29.1
2018-05-29T10:27:25.276Z,29.39
2018-05-29T10:28:25.236Z,28.42
2018-05-29T10:29:25.300Z,27.76
2018-05-29T10:30:25.323Z,27.5
2018-05-29T10:31:25.170Z,27.34
2018-05-29T10:32:25.386Z,27.15
2018-05-29T10:33:25.768Z,27.45
2018-05-29T10:34:25.525Z,27.63
2018-05-29T10:35:25.528Z,28.31
2018-05-29T10:36:26.086Z,28.8
2018-05-29T10:37:26.128Z,29.35
2018-05-29T10:38:26.123Z,29.43
2018-05-29T10:39:26.694Z,29.91
2018-05-29T10:40:26.463Z,30.59
2018-05-29T10:41:27.095Z,29.99
2018-05-29T10:42:27.448Z,29.04
2018-05-29T10:43:28.089Z,28.46
2018-05-29T10:44:27.465Z,28.77
2018-05-29T10:45:27.741Z,29.16
2018-05-29T10:46:27.564Z,29.07
2018-05-29T10:47:27.867Z,29
2018-05-29T10:48:28.352Z,29.5
2018-05-29T10:49:27.990Z,29.35
2018-05-29T10:50:27.890Z,29.18
2018-05-29T10:51:28.014Z,29.21
2018-05-29T10:52:28.029Z,28.24
2018-05-29T10:53:27.996Z,28.34
2018-05-29T10:54:28.047Z,28.11
2018-05-29T10:55:28.024Z,28.4
2018-05-29T10:56:28.271Z,28
2018-05-29T10:57:28.457Z,28
2018-05-29T10:58:28.629Z,28.41
2018-05-29T10:59:29.044Z,28.78
2018-05-29T11:00:28.731Z,29.38
2018-05-29T11:01:28.535Z,29.34
2018-05-29T11:02:28.797Z,29.44
2018-05-29T11:03:28.610Z,29.52
2018-05-29T11:04:29.163Z,29.31
2018-05-29T11:05:28.891Z,29.13
2018-05-29T11:06:29.528Z,29.43
2018-05-29T11:07:29.480Z,29.21
2018-05-29T11:08:29.233Z,29.33
2018-05-29T11:09:29.753Z,29.81
2018-05-29T11:10:30.183Z,29.33
2018-05-29T11:11:29.965Z,29.43
2018-05-29T11:12:30.118Z,29.07
2018-05-29T11:13:31.258Z,29.35
2018-05-29T11:14:31.003Z,29.25
2018-05-29T11:15:30.765Z,30.02
2018-05-29T11:16:31.059Z,30.66
2018-05-29T11:17:30.970Z,30.93
2018-05-29T11:18:31.533Z,30.94
2018-05-29T11:19:32.101Z,31.31
2018-05-29T11:20:31.277Z,31.02
2018-05-29T11:21:31.602Z,31.13
2018-05-29T11:22:32.147Z,31.13
2018-05-29T11:23:32.453Z,31.13
2018-05-29T11:24:32.510Z,31.31
2018-05-29T11:25:32.002Z,31.31
2018-05-29T11:26:31.997Z,30.94
2018-05-29T11:27:32.047Z,30.46
2018-05-29T11:28:32.102Z,31.05
2018-05-29T11:29:32.314Z,32.31
2018-05-29T11:30:32.353Z,33.54
2018-05-29T11:31:32.861Z,34.86
2018-05-29T11:32:32.681Z,35.96
2018-05-29T11:33:32.994Z,36.88
2018-05-29T11:34:33.207Z,37.62
2018-05-29T11:35:33.241Z,38.85
2018-05-29T11:36:33.661Z,39.62
2018-05-29T11:37:34.819Z,40.09
2018-05-29T11:38:34.652Z,40.27
2018-05-29T11:39:34.705Z,41.15
2018-05-29T11:40:34.452Z,41.33
2018-05-29T11:41:35.138Z,41.31
2018-05-29T11:42:35.384Z,41.7
2018-05-29T11:43:35.452Z,42.17
2018-05-29T11:44:35.660Z,42.76
2018-05-29T11:45:35.125Z,42.83
2018-05-29T11:46:34.865Z,42.54
2018-05-29T11:47:34.946Z,43.03
2018-05-29T11:48:35.326Z,43.1
2018-05-29T11:49:34.982Z,43.2
2018-05-29T11:50:35.067Z,43.48
2018-05-29T11:51:35.430Z,43.67
2018-05-29T11:52:35.396Z,43.87
2018-05-29T11:53:35.135Z,43.77
2018-05-29T11:54:35.540Z,43.38
2018-05-29T11:55:36.366Z,43.67
2018-05-29T11:56:35.975Z,43.48
2018-05-29T11:57:36.190Z,43.67
2018-05-29T11:58:36.569Z,43.96
2018-05-29T11:59:36.593Z,44.34
2018-05-29T12:00:37.219Z,44.35
2018-05-29T12:01:37.385Z,44.26
2018-05-29T12:02:37.477Z,43.67
2018-05-29T12:03:37.652Z,44.16
2018-05-29T12:04:37.777Z,43.96
2018-05-29T12:05:37.587Z,43.96
2018-05-29T12:06:37.863Z,44.16
2018-05-29T12:07:37.714Z,43.08
2018-05-29T12:08:37.838Z,43.87
2018-05-29T12:09:38.291Z,43.57
2018-05-29T12:10:38.325Z,43.96
2018-05-29T12:11:38.495Z,43.75
2018-05-29T12:12:38.577Z,43.87
2018-05-29T12:13:38.584Z,43.87
2018-05-29T12:14:39.063Z,44.24
2018-05-29T12:15:39.095Z,44.14
2018-05-29T12:16:39.289Z,44.14
2018-05-29T12:17:39.691Z,44.63
2018-05-29T12:18:39.659Z,44.73
2018-05-29T12:19:39.973Z,45.12
2018-05-29T12:20:40.171Z,44.06
2018-05-29T12:21:40.929Z,44.26
2018-05-29T12:22:41.031Z,44.14
2018-05-29T12:23:40.653Z,44.35
2018-05-29T12:24:40.445Z,44.06
2018-05-29T12:25:40.858Z,43.96
2018-05-29T12:26:40.947Z,44.35
2018-05-29T12:27:40.965Z,44.26
2018-05-29T12:28:41.815Z,44.16
2018-05-29T12:29:41.354Z,44.06
2018-05-29T12:30:41.364Z,44.35
2018-05-29T12:31:41.441Z,43.77
2018-05-29T12:32:41.768Z,43.87
2018-05-29T12:33:41.519Z,43.77
2018-05-29T12:34:41.526Z,44.16
2018-05-29T12:35:42.242Z,43.08
2018-05-29T12:36:42.403Z,43.38
2018-05-29T12:37:42.876Z,43.87
2018-05-29T12:38:42.905Z,43.48
2018-05-29T12:39:42.977Z,43.87
2018-05-29T12:41:43.162Z,43.77
2018-05-29T12:42:43.853Z,43.57
2018-05-29T12:43:44.164Z,43.18
2018-05-29T12:44:44.520Z,44.04
2018-05-29T12:45:44.742Z,43.95
2018-05-29T12:46:45.229Z,42.97
2018-05-29T12:47:45.093Z,43.65
2018-05-29T12:48:45.109Z,44.14
2018-05-29T12:49:45.140Z,44.14
2018-05-29T12:50:44.911Z,43.95
2018-05-29T12:51:45.206Z,43.57
2018-05-29T12:52:45.632Z,43.46
2018-05-29T12:53:46.077Z,44.14
2018-05-29T12:54:46.505Z,44.16
2018-05-29T12:55:46.279Z,43.67
2018-05-29T12:56:46.326Z,43.67
2018-05-29T12:57:46.638Z,43.18
2018-05-29T12:58:46.876Z,43.28